createdAt,value
2023-05-04T00:00:11.450Z,99.90
2023-05-04T00:02:44.715Z,99.90
2023-05-04T00:07:49.896Z,99.90
2023-05-04T00:10:22.078Z,99.90
2023-05-04T00:12:54.996Z,99.90
2023-05-04T00:18:00.607Z,99.90
2023-05-04T00:20:33.252Z,99.90
2023-05-04T00:25:38.678Z,99.90
2023-05-04T00:28:11.582Z,99.90
2023-05-04T00:30:43.736Z,99.90
2023-05-04T00:36:11.012Z,99.90
2023-05-04T00:38:54.864Z,99.90
2023-05-04T00:41:27.373Z,99.90
2023-05-04T00:43:59.866Z,99.90
2023-05-04T00:46:34.829Z,99.90
2023-05-04T00:49:08.496Z,99.90
2023-05-04T00:51:41.098Z,99.90
2023-05-04T00:54:18.451Z,99.90
2023-05-04T00:56:50.467Z,99.90
2023-05-04T00:59:23.340Z,99.90
2023-05-04T01:01:55.397Z,99.90
2023-05-04T01:04:28.283Z,99.90
2023-05-04T01:07:21.795Z,99.90
2023-05-04T01:10:05.456Z,99.90
2023-05-04T01:12:49.095Z,99.90
2023-05-04T01:15:23.154Z,99.90
2023-05-04T01:17:55.167Z,99.90
2023-05-04T01:20:28.385Z,99.90
2023-05-04T01:23:02.104Z,99.90
2023-05-04T01:26:04.393Z,99.90
2023-05-04T01:28:45.162Z,99.90
2023-05-04T01:31:23.410Z,99.90
2023-05-04T01:33:56.548Z,99.90
2023-05-04T01:36:29.668Z,99.90
2023-05-04T01:39:02.641Z,99.90
2023-05-04T01:41:57.523Z,99.90
2023-05-04T01:47:02.550Z,99.90
2023-05-04T01:49:34.908Z,99.90
2023-05-04T01:52:07.311Z,99.90
2023-05-04T01:54:39.295Z,99.90
2023-05-04T02:00:06.248Z,99.90
2023-05-04T02:05:24.142Z,99.90
2023-05-04T02:07:56.481Z,99.90
2023-05-04T02:13:01.856Z,99.90
2023-05-04T02:15:33.888Z,99.90
2023-05-04T02:18:28.190Z,99.90
2023-05-04T02:23:33.923Z,99.90
2023-05-04T02:26:06.705Z,99.90
2023-05-04T02:28:39.508Z,99.90
2023-05-04T02:31:11.912Z,99.90
2023-05-04T02:33:44.376Z,99.90
2023-05-04T02:38:49.525Z,99.90
2023-05-04T02:43:54.605Z,99.90
2023-05-04T02:51:31.978Z,99.90
2023-05-04T02:56:37.403Z,99.90
2023-05-04T02:59:10.778Z,99.90
2023-05-04T03:06:48.921Z,99.90
2023-05-04T03:11:54.313Z,99.90
2023-05-04T03:14:26.388Z,99.90
2023-05-04T03:16:59.659Z,99.90
2023-05-04T03:22:04.790Z,99.90
2023-05-04T03:24:38.164Z,99.90
2023-05-04T03:27:10.558Z,99.90
2023-05-04T03:29:43.674Z,99.90
2023-05-04T03:32:17.013Z,99.90
2023-05-04T03:34:49.146Z,99.90
2023-05-04T03:37:23.970Z,99.90
2023-05-04T03:39:56.180Z,99.90
2023-05-04T03:42:29.061Z,99.90
2023-05-04T03:47:37.423Z,99.90
2023-05-04T03:50:11.144Z,99.90
2023-05-04T03:52:43.468Z,99.90
2023-05-04T03:57:54.520Z,99.90
2023-05-04T04:03:08.343Z,99.90
2023-05-04T04:08:15.059Z,99.90
2023-05-04T04:13:20.379Z,99.90
2023-05-04T04:15:52.341Z,99.90
2023-05-04T04:18:25.099Z,99.90
2023-05-04T04:20:57.074Z,99.90
2023-05-04T04:26:02.786Z,99.90
2023-05-04T04:28:34.677Z,99.90
2023-05-04T04:31:07.444Z,99.90
2023-05-04T04:33:39.347Z,99.90
2023-05-04T04:36:13.117Z,99.90
2023-05-04T04:38:47.233Z,99.90
2023-05-04T04:46:25.385Z,99.90
2023-05-04T04:56:40.902Z,99.90
2023-05-04T04:59:14.053Z,99.90
2023-05-04T05:01:47.090Z,99.90
2023-05-04T05:04:19.638Z,99.90
2023-05-04T05:06:54.519Z,99.90
2023-05-04T05:11:59.674Z,99.90
2023-05-04T05:14:35.147Z,99.90
2023-05-04T05:19:42.354Z,99.90
2023-05-04T05:22:15.049Z,99.90
2023-05-04T05:24:47.673Z,99.90
2023-05-04T05:35:23.325Z,99.90
2023-05-04T05:37:55.362Z,99.90
2023-05-04T05:40:28.986Z,99.90
2023-05-04T05:45:37.884Z,99.90
2023-05-04T05:48:09.863Z,99.90
2023-05-04T05:50:43.197Z,99.90
2023-05-04T05:53:15.294Z,99.90
2023-05-04T06:00:54.926Z,99.90
2023-05-04T06:03:28.320Z,99.90
2023-05-04T06:08:33.959Z,99.90
2023-05-04T06:11:06.212Z,99.90
2023-05-04T06:16:12.663Z,99.90
2023-05-04T06:18:44.758Z,99.90
2023-05-04T06:29:00.059Z,99.90
2023-05-04T06:31:31.994Z,99.90
2023-05-04T06:34:04.845Z,99.90
2023-05-04T06:36:37.279Z,99.90
2023-05-04T06:39:10.351Z,99.90
2023-05-04T06:49:26.761Z,99.90
2023-05-04T06:51:58.625Z,99.90
2023-05-04T06:54:31.936Z,99.90
2023-05-04T06:57:04.945Z,99.90
2023-05-04T06:59:38.000Z,99.90
2023-05-04T07:04:44.562Z,99.90
2023-05-04T07:07:16.592Z,99.90
2023-05-04T07:09:51.590Z,99.90
2023-05-04T07:15:17.882Z,99.90
2023-05-04T07:20:26.585Z,99.90
2023-05-04T07:23:51.827Z,99.90
2023-05-04T07:26:27.645Z,99.90
2023-05-04T07:31:34.113Z,99.90
2023-05-04T07:36:43.179Z,98.00
2023-05-04T07:39:18.333Z,98.20
2023-05-04T07:41:52.308Z,95.50
2023-05-04T07:44:24.165Z,95.10
2023-05-04T07:49:33.119Z,94.40
2023-05-04T07:52:06.240Z,94.00
2023-05-04T07:54:46.059Z,94.70
2023-05-04T07:57:18.348Z,94.50
2023-05-04T07:59:55.999Z,94.70
2023-05-04T08:02:55.167Z,94.00
2023-05-04T08:05:27.553Z,93.40
2023-05-04T08:08:03.258Z,93.40
2023-05-04T08:10:47.140Z,91.40
2023-05-04T08:18:44.041Z,89.80
2023-05-04T08:21:16.032Z,90.90
2023-05-04T08:23:53.025Z,91.20
2023-05-04T08:26:25.006Z,91.60
2023-05-04T08:29:11.066Z,91.20
2023-05-04T08:34:17.254Z,89.90
2023-05-04T08:41:56.982Z,88.80
2023-05-04T08:44:29.514Z,88.30
2023-05-04T08:47:07.382Z,89.40
2023-05-04T08:49:46.872Z,90.00
2023-05-04T08:58:17.293Z,90.00
2023-05-04T09:00:50.429Z,88.50
2023-05-04T09:08:31.835Z,87.50
2023-05-04T09:11:05.472Z,87.50
2023-05-04T09:13:38.630Z,87.70
2023-05-04T09:16:12.805Z,85.80
2023-05-04T09:18:47.398Z,84.60
2023-05-04T09:21:32.722Z,86.40
2023-05-04T09:24:05.534Z,86.50
2023-05-04T09:26:38.526Z,86.10
2023-05-04T09:29:16.129Z,85.90
2023-05-04T09:31:51.356Z,85.60
2023-05-04T09:34:24.151Z,86.50
2023-05-04T09:37:04.151Z,88.80
2023-05-04T09:42:18.938Z,90.40
2023-05-04T09:45:08.937Z,90.20
2023-05-04T09:47:43.743Z,90.60
2023-05-04T09:50:23.261Z,90.40
2023-05-04T09:52:57.113Z,90.30
2023-05-04T09:58:03.454Z,90.30
2023-05-04T10:00:36.843Z,90.50
2023-05-04T10:08:17.437Z,90.70
2023-05-04T10:10:50.486Z,90.50
2023-05-04T10:13:24.865Z,91.00
2023-05-04T10:16:26.076Z,91.00
2023-05-04T10:19:10.214Z,91.20
2023-05-04T10:22:29.228Z,91.00
2023-05-04T10:25:27.994Z,90.80
2023-05-04T10:28:40.952Z,91.00
2023-05-04T10:31:12.962Z,91.40
2023-05-04T10:33:46.847Z,91.30
2023-05-04T10:36:18.931Z,91.10
2023-05-04T10:38:51.972Z,91.00
2023-05-04T10:44:18.589Z,90.70
2023-05-04T10:46:59.726Z,90.60
2023-05-04T10:49:34.765Z,90.60
2023-05-04T10:52:17.929Z,90.60
2023-05-04T10:55:03.578Z,91.30
2023-05-04T10:57:51.749Z,90.70
2023-05-04T11:00:38.872Z,90.60
2023-05-04T11:03:13.791Z,90.80
2023-05-04T11:05:50.855Z,91.00
2023-05-04T11:08:26.524Z,90.40
2023-05-04T11:11:07.220Z,90.60
2023-05-04T11:13:48.634Z,90.10
2023-05-04T11:16:27.710Z,89.10
2023-05-04T11:19:18.701Z,89.10
2023-05-04T11:21:50.935Z,89.50
2023-05-04T11:24:48.021Z,89.40
2023-05-04T11:27:29.066Z,89.80
2023-05-04T11:30:07.478Z,90.40
2023-05-04T11:32:49.589Z,90.60
2023-05-04T11:35:26.028Z,90.10
2023-05-04T11:37:58.595Z,89.50
2023-05-04T11:40:31.642Z,89.40
2023-05-04T11:43:04.291Z,89.90
2023-05-04T11:45:38.870Z,89.10
2023-05-04T11:48:11.101Z,89.20
2023-05-04T11:50:46.845Z,88.60
2023-05-04T11:53:22.158Z,89.40
2023-05-04T11:56:02.893Z,88.70
2023-05-04T11:58:35.117Z,88.20
2023-05-04T12:01:08.317Z,87.70
2023-05-04T12:03:53.196Z,88.00
2023-05-04T12:06:34.184Z,88.10
2023-05-04T12:09:06.833Z,89.20
2023-05-04T12:11:40.669Z,88.70
2023-05-04T12:16:55.705Z,86.40
2023-05-04T12:19:27.703Z,87.40
2023-05-04T12:22:04.389Z,87.30
2023-05-04T12:27:16.820Z,86.50
2023-05-04T12:29:48.825Z,86.00
2023-05-04T12:37:28.339Z,86.40
2023-05-04T12:40:00.536Z,85.20
2023-05-04T12:42:33.801Z,85.70
2023-05-04T12:45:06.641Z,84.40
2023-05-04T12:47:40.125Z,83.40
2023-05-04T12:52:46.517Z,83.40
2023-05-04T12:55:19.431Z,83.70
2023-05-04T13:00:46.177Z,83.50
2023-05-04T13:03:19.268Z,84.10
2023-05-04T13:10:57.489Z,84.30
2023-05-04T13:21:33.082Z,81.90
2023-05-04T13:24:07.804Z,82.00
2023-05-04T13:26:39.710Z,81.90
2023-05-04T13:29:12.525Z,83.10
2023-05-04T13:31:45.363Z,82.70
2023-05-04T13:34:18.658Z,82.80
2023-05-04T13:36:50.795Z,81.60
2023-05-04T13:39:24.163Z,81.50
2023-05-04T13:41:56.449Z,80.20
2023-05-04T13:44:28.941Z,79.00
2023-05-04T13:47:03.575Z,80.90
2023-05-04T13:49:40.396Z,82.60
2023-05-04T13:57:19.244Z,81.80
2023-05-04T14:00:05.894Z,81.70
2023-05-04T14:02:43.236Z,82.40
2023-05-04T14:05:16.198Z,81.40
2023-05-04T14:07:48.238Z,81.70
2023-05-04T14:10:21.413Z,81.40
2023-05-04T14:12:53.787Z,81.10
2023-05-04T14:18:00.842Z,79.00
2023-05-04T14:20:32.977Z,78.60
2023-05-04T14:28:11.636Z,79.40
2023-05-04T14:30:44.016Z,78.50
2023-05-04T14:33:16.725Z,79.00
2023-05-04T14:35:49.636Z,79.60
2023-05-04T14:38:21.498Z,80.40
2023-05-04T14:40:59.067Z,79.80
2023-05-04T14:48:37.719Z,80.00
2023-05-04T14:54:07.588Z,78.50
2023-05-04T14:56:40.108Z,78.90
2023-05-04T14:59:12.435Z,79.40
2023-05-04T15:04:21.910Z,79.10
2023-05-04T15:06:53.809Z,79.10
2023-05-04T15:11:59.255Z,78.70
2023-05-04T15:14:32.131Z,78.90
2023-05-04T15:17:05.596Z,79.20
2023-05-04T15:19:39.693Z,79.60
2023-05-04T15:22:11.594Z,79.40
2023-05-04T15:27:16.840Z,79.30
2023-05-04T15:29:49.774Z,80.10
2023-05-04T15:35:04.471Z,80.20
2023-05-04T15:37:38.253Z,80.50
2023-05-04T15:40:11.920Z,80.90
2023-05-04T15:45:37.481Z,80.70
2023-05-04T15:48:09.928Z,80.60
2023-05-04T15:50:42.854Z,79.70
2023-05-04T15:53:15.674Z,79.20
2023-05-04T15:55:48.437Z,79.30
2023-05-04T15:58:20.859Z,79.10
2023-05-04T16:00:52.810Z,79.10
2023-05-04T16:03:26.143Z,78.70
2023-05-04T16:05:58.506Z,78.30
2023-05-04T16:08:31.828Z,78.20
2023-05-04T16:11:04.511Z,78.60
2023-05-04T16:13:37.925Z,78.30
2023-05-04T16:16:10.076Z,79.40
2023-05-04T16:26:21.086Z,79.80
2023-05-04T16:28:53.980Z,80.40
2023-05-04T16:33:58.728Z,81.10
2023-05-04T16:39:04.759Z,80.50
2023-05-04T16:41:36.833Z,81.30
2023-05-04T16:44:09.766Z,81.30
2023-05-04T16:46:41.986Z,82.10
2023-05-04T16:51:47.371Z,82.30
2023-05-04T16:54:21.011Z,82.20
2023-05-04T16:59:26.250Z,82.30
2023-05-04T17:01:59.732Z,82.60
2023-05-04T17:04:32.452Z,82.50
2023-05-04T17:07:04.498Z,82.70
2023-05-04T17:09:37.762Z,83.20
2023-05-04T17:12:09.683Z,84.00
2023-05-04T17:14:43.577Z,83.00
2023-05-04T17:22:21.740Z,84.50
2023-05-04T17:24:54.487Z,85.00
2023-05-04T17:29:59.944Z,85.10
2023-05-04T17:35:20.078Z,86.30
2023-05-04T17:37:58.751Z,86.50
2023-05-04T17:40:32.019Z,86.20
2023-05-04T17:43:04.301Z,87.00
2023-05-04T17:48:09.381Z,87.50
2023-05-04T17:53:14.584Z,88.00
2023-05-04T17:55:46.970Z,88.40
2023-05-04T18:00:52.994Z,88.90
2023-05-04T18:05:58.627Z,90.20
2023-05-04T18:08:31.561Z,90.30
2023-05-04T18:11:03.928Z,90.60
2023-05-04T18:16:09.264Z,91.00
2023-05-04T18:18:42.363Z,91.30
2023-05-04T18:21:15.542Z,91.90
2023-05-04T18:23:47.414Z,91.80
2023-05-04T18:31:49.602Z,92.90
2023-05-04T18:34:22.414Z,92.90
2023-05-04T18:36:54.475Z,93.50
2023-05-04T18:42:01.764Z,94.40
2023-05-04T18:44:34.560Z,94.80
2023-05-04T18:47:07.841Z,95.20
2023-05-04T18:49:40.601Z,95.20
2023-05-04T18:52:12.530Z,95.10
2023-05-04T18:57:36.968Z,96.10
2023-05-04T19:00:10.649Z,96.10
2023-05-04T19:02:43.366Z,96.70
2023-05-04T19:05:15.356Z,96.50
2023-05-04T19:07:50.695Z,96.70
2023-05-04T19:10:23.030Z,97.90
2023-05-04T19:15:28.598Z,98.70
2023-05-04T19:18:01.839Z,98.60
2023-05-04T19:20:37.588Z,99.70
2023-05-04T19:23:12.530Z,99.70
2023-05-04T19:25:45.260Z,99.90
2023-05-04T19:28:19.467Z,99.50
2023-05-04T19:33:36.292Z,99.90
2023-05-04T19:38:50.213Z,99.90
2023-05-04T19:43:58.887Z,99.20
2023-05-04T19:46:32.357Z,99.00
2023-05-04T19:54:13.662Z,99.10
2023-05-04T19:56:46.298Z,98.80
2023-05-04T19:59:22.852Z,98.30
2023-05-04T20:01:55.237Z,99.00
2023-05-04T20:04:28.650Z,99.10
2023-05-04T20:07:01.555Z,98.90
2023-05-04T20:09:33.863Z,99.50
2023-05-04T20:12:06.416Z,99.80
2023-05-04T20:14:39.368Z,99.90
2023-05-04T20:17:12.467Z,98.50
2023-05-04T20:19:46.510Z,99.90
2023-05-04T20:24:51.831Z,99.40
2023-05-04T20:27:23.885Z,98.00
2023-05-04T20:32:30.426Z,99.90
2023-05-04T20:40:32.452Z,99.90
2023-05-04T20:43:05.275Z,99.90
2023-05-04T20:45:38.083Z,99.90
2023-05-04T20:48:09.967Z,99.90
2023-05-04T20:50:42.704Z,99.90
2023-05-04T20:58:41.188Z,99.90
2023-05-04T21:01:14.195Z,99.90
2023-05-04T21:03:47.147Z,99.90
2023-05-04T21:06:19.123Z,99.90
2023-05-04T21:08:51.965Z,99.90
2023-05-04T21:13:56.518Z,99.90
2023-05-04T21:19:01.909Z,99.90
2023-05-04T21:21:39.385Z,99.90
2023-05-04T21:24:13.276Z,99.90
2023-05-04T21:26:46.369Z,99.90
2023-05-04T21:29:19.505Z,99.90
2023-05-04T21:31:52.086Z,99.90
2023-05-04T21:34:24.869Z,99.90
2023-05-04T21:36:58.028Z,99.90
2023-05-04T21:39:30.424Z,99.90
2023-05-04T21:44:36.004Z,99.90
2023-05-04T21:47:07.913Z,99.90
2023-05-04T21:49:40.887Z,99.90
2023-05-04T21:52:32.638Z,99.90
2023-05-04T21:55:05.107Z,99.90
2023-05-04T22:00:18.152Z,99.90
2023-05-04T22:08:00.809Z,99.90
2023-05-04T22:15:49.311Z,99.90
2023-05-04T22:18:22.494Z,99.90
2023-05-04T22:20:55.316Z,99.90
2023-05-04T22:23:27.239Z,99.90
2023-05-04T22:25:59.979Z,99.90
2023-05-04T22:28:32.312Z,99.90
2023-05-04T22:31:06.212Z,99.90
2023-05-04T22:33:38.617Z,99.90
2023-05-04T22:36:12.246Z,99.90
2023-05-04T22:43:49.506Z,99.90
2023-05-04T22:48:54.656Z,99.90
2023-05-04T22:51:27.825Z,99.90
2023-05-04T22:53:59.834Z,99.90
2023-05-04T22:56:33.458Z,99.90
2023-05-04T23:01:43.704Z,99.90
2023-05-04T23:04:16.626Z,99.90
2023-05-04T23:06:48.901Z,99.90
2023-05-04T23:09:21.231Z,99.90
2023-05-04T23:11:53.843Z,99.90
2023-05-04T23:14:26.532Z,99.90
2023-05-04T23:16:59.511Z,99.90
2023-05-04T23:19:32.349Z,99.90
2023-05-04T23:22:05.042Z,99.90
2023-05-04T23:24:37.173Z,99.90
2023-05-04T23:27:11.531Z,99.90
2023-05-04T23:29:43.848Z,99.90
2023-05-04T23:34:49.055Z,99.90
2023-05-04T23:39:54.094Z,99.90
2023-05-04T23:44:59.212Z,99.90
2023-05-04T23:50:05.621Z,99.90
2023-05-04T23:52:37.961Z,99.90
2023-05-04T23:55:10.646Z,99.90
2023-05-04T23:57:45.837Z,99.90
